Home > Products > Valid Products > TAF

000
FTUS43 KIWX 252300
TAFFWA
TAF
KFWA 252338Z 2600/2624 05018G25KT 1SM -SN BR OVC015
     FM260300 04017G23KT 4SM -SN OVC015
     FM260600 03015G21KT P6SM BKN040
     FM260900 02014KT P6SM SCT050
     FM261300 35008KT P6SM SCT250=



000
FTUS43 KIWX 251700 RRA
TAFFWA
TAF
KFWA 251745Z 2518/2618 07021G28KT 1SM -SN BR OVC007
      TEMPO 2519/2523 1/2SM SN BLSN VV003
     FM252300 05022G27KT 1SM -SN BLSN OVC010
     FM260600 04014KT P6SM SCT010 BKN020
     FM261000 35008KT P6SM SCT020=



000
FTUS43 KIWX 251100
TAFFWA
TAF
KFWA 251132Z 2512/2612 10004KT P6SM SCT015 OVC025
      TEMPO 2512/2515 4SM BR OVC015
     FM251500 06008KT 4SM -SN BR OVC008
     FM251800 06016G22KT 1SM -SN BR OVC006
      TEMPO 2519/2523 1/2SM SN FZFG VV003
     FM260100 05012G18KT P6SM -SN OVC012
     FM260600 04008KT P6SM SCT015 BKN035=



000
FTUS43 KIWX 250500
TAFFWA
TAF
KFWA 250535Z 2506/2606 22008KT P6SM FEW018 OVC029
     FM250800 VRB04KT P6SM OVC015
     FM251500 06008KT 3SM -SN OVC015
     FM251800 06016G22KT 1SM -SN OVC008
      TEMPO 2519/2523 1/2SM SN FZFG VV003
     FM260300 05012G18KT P6SM -SN OVC012=



000
FTUS43 KIWX 242300
TAFFWA
TAF
KFWA 242338Z 2500/2524 24004KT P6SM BKN025
     FM251300 06008KT 3SM -SN OVC015
     FM251800 06013G18KT 1SM -SN OVC008
      TEMPO 2519/2523 1/2SM SN FZFG VV003=



000
FTUS43 KIWX 241700 RRA
TAFFWA
TAF
KFWA 241741Z 2418/2518 27011KT P6SM BKN012 OVC035
     FM242200 25007KT P6SM SCT015
     FM250200 VRB03KT P6SM BKN015
     FM251200 08007KT 5SM -SN OVC015
     FM251400 07014G22KT 1SM -SN OVC008=



000
FTUS43 KIWX 241100
TAFFWA
TAF
KFWA 241130Z 2412/2512 23008KT P6SM SCT100
     FM241500 27011KT P6SM OVC025
     FM250000 25007KT P6SM BKN035
     FM251100 10008KT P6SM -SHSN OVC035=



000
FTUS43 KIWX 240500
TAFFWA
TAF
KFWA 240536Z 2406/2506 26013KT P6SM OVC017
     FM240900 24007KT P6SM SCT020 BKN250
     FM241200 25011KT P6SM BKN025
     FM241700 26011KT P6SM BKN035=



000
FTUS43 KIWX 232300
TAFFWA
TAF
KFWA 232338Z 2400/2424 28007KT P6SM OVC018
     FM241400 25011KT P6SM BKN025=



000
FTUS43 KIWX 231700
TAFFWA
TAF
KFWA 231734Z 2318/2418 23008KT P6SM OVC015
     FM240000 24005KT P6SM BKN020
     FM241500 27009KT P6SM BKN025=



000
FTUS43 KIWX 231600 AAA
TAFFWA
TAF AMD
KFWA 231629Z 2316/2412 23008KT P6SM OVC015
     FM240000 24005KT P6SM BKN020=



000
FTUS43 KIWX 231100
TAFFWA
TAF
KFWA 231131Z 2312/2412 22008KT P6SM OVC017
     FM231600 23009KT P6SM OVC025
     FM240000 24005KT P6SM BKN035=



000
FTUS43 KIWX 230500
TAFFWA
TAF
KFWA 230531Z 2306/2406 24005KT P6SM OVC024
     FM231600 23009KT P6SM OVC025=



    US Dept of Commerce
    National Oceanic and Atmospheric Administration
    National Weather Service
    1325 East West Highway
    Silver Spring, MD 20910
    Page Author: NWS Internet Services Team
Disclaimer
Information Quality
Credits
Glossary
Privacy Policy
Freedom of Information Act (FOIA)
About Us
Career Opportunities